Terminal Aerodrome Forecast
Issued by NWS Lake Charles, LA

Home | Current Version | Previous Version | Text Only | Print | Product List | Glossary On
Versions: 1 2 3 4 5 6 7 8 9 10 11 12 13 14 15 16 17 18 19 20
000
FTUS44 KLCH 281700
TAFAEX
TAF
KAEX 281733Z 2818/0118 09008KT P6SM OVC080
     FM011000 07005KT 5SM BR SCT015 OVC025
     FM011200 08004KT 4SM BR VCSH SCT007 OVC015
      TEMPO 0112/0114 2SM BR OVC004
     FM011400 12005KT 3SM BR VCSH OVC007=

USA.gov is the U.S. government's official web portal to all federal, state and local government web resources and services.